• Join FlightAware (Why Join?)
  • Login
  • US Flag 
12:25PM EDT


 

Airport Tracker/Info


-or-


 

Live Flight TrackerFlight Track Log ✈ N328AJ ✈ 07-Oct-2013 ✈ KIAD - KCMH

Flight Track Log - Related Links

Times and Time Zones

All times are in EDT time to prevent confusion due to time zone crossing. See the N328AJ flight status page for this flight to view local times or setup timezone preferences in your user account.

Time Position Orientation Groundspeed Altitude Reporting Facility
EDT Latitude Longitude Course Direction KTS MPH feet Rate Location/Type
02:23PM 38.9667 -77.5333 311° West 177 204 2,600  Level Potomac TRACON
02:24PM 39.0000 -77.5833 311° West 201 231 4,300 1,560 Climbing Potomac TRACON
02:25PM 39.0667 -77.6167 339° North 230 265 5,800 1,440 Climbing Potomac TRACON
02:26PM 39.1000 -77.6833 303° West 222 255 7,200 1,080 Climbing Potomac TRACON
02:27PM 39.1167 -77.7500 288° West 217 250 8,000 420 Climbing Potomac TRACON
02:28PM 39.1333 -77.8167 288° West 226 260 8,100  Climbing Potomac TRACON
02:29PM 39.1667 -77.9000 297° West 248 285 8,000  Descending Potomac TRACON
02:30PM 39.1833 -77.9833 284° West 256 295 8,100  Climbing Potomac TRACON
02:31PM 39.2167 -78.0833 293° West 260 299 8,100  Level Potomac TRACON
02:32PM 39.2333 -78.1667 285° West 254 292 8,100 300 Level Potomac TRACON
02:32PM 39.2514 -78.2317 290° West 259 298 8,700 840 Climbing Washington Center
02:34PM 39.2725 -78.3103 289° West 247 284 9,800 660 Climbing Washington Center
02:35PM 39.2936 -78.3942 288° West 247 284 10,100 300 Climbing Washington Center
02:35PM 39.3081 -78.4831 282° West 247 284 10,500 720 Climbing Washington Center
02:37PM 39.3228 -78.5642 283° West 241 277 11,600 1,020 Climbing Washington Center
02:38PM 39.3375 -78.6453 283° West 241 277 12,600 960 Climbing Washington Center
02:39PM 39.3519 -78.7239 283° West 236 272 13,600 960 Climbing Washington Center
02:39PM 39.3628 -78.7942 281° West 224 258 14,600 840 Climbing Washington Center
02:41PM 39.3936 -78.9292 287° West 208 239 16,100 420 Climbing Indianapolis Center
02:43PM 39.4308 -79.0344 295° West 246 283 16,000 -60 Descending Cleveland Center
02:44PM 39.4589 -79.1136 295° West 243 280 16,000  Level Cleveland Center
02:45PM 39.4858 -79.1953 293° West 246 283 16,000  Level Cleveland Center
02:46PM 39.5133 -79.2747 294° West 242 278 16,000  Level Cleveland Center
02:47PM 39.5461 -79.3714 294° West 242 278 16,000  Level Cleveland Center
02:48PM 39.5725 -79.4519 293° West 241 277 16,000  Level Cleveland Center
02:49PM 39.5992 -79.5297 294° West 236 272 16,000  Level Cleveland Center
02:50PM 39.6250 -79.6078 293° West 235 270 16,000  Level Cleveland Center
02:51PM 39.6508 -79.6850 294° West 233 268 16,000  Level Cleveland Center
02:52PM 39.6761 -79.7639 293° West 235 270 16,000  Level Cleveland Center
02:53PM 39.7031 -79.8400 295° West 233 268 16,000  Level Cleveland Center
02:54PM 39.7336 -79.9331 293° West 234 269 16,000  Level Cleveland Center
02:55PM 39.7589 -80.0108 293° West 233 268 16,000  Level Cleveland Center
02:56PM 39.7853 -80.0911 293° West 240 276 16,000  Level Cleveland Center
02:57PM 39.7983 -80.1728 282° West 240 276 16,000  Level Cleveland Center
02:58PM 39.7978 -80.2572 270° West 235 270 16,000  Level Cleveland Center
02:59PM 39.7964 -80.3425 269° West 236 272 16,000  Level Cleveland Center
03:00PM 39.7950 -80.4442 269° West 234 269 16,000  Level Cleveland Center
03:01PM 39.7936 -80.5294 269° West 235 270 16,000  Level Cleveland Center
03:02PM 39.7919 -80.6156 269° West 238 274 16,000  Level Cleveland Center
03:03PM 39.7886 -80.6764 266° West 235 270 16,000  Level Indianapolis Center
03:04PM 39.7906 -80.7631 272° West 239 275 16,100  Climbing Indianapolis Center
03:05PM 39.8047 -80.8456 283° West 235 270 16,100  Level Indianapolis Center
03:06PM 39.8178 -80.9317 281° West 241 277 16,100  Level Indianapolis Center
03:07PM 39.8342 -81.0344 282° West 242 278 16,100 -300 Level Indianapolis Center
03:08PM 39.8339 -81.1231 270° West 248 285 15,500 -780 Descending Indianapolis Center
03:09PM 39.8272 -81.2158 265° West 256 295 14,600 -1,200 Descending Indianapolis Center
03:10PM 39.8194 -81.3128 264° West 267 307 13,100 -1,320 Descending Indianapolis Center
03:11PM 39.8125 -81.4106 265° West 272 313 12,000 -1,020 Descending Indianapolis Center
03:12PM 39.8047 -81.5058 264° West 264 304 11,100 -900 Descending Indianapolis Center
03:13PM 39.7978 -81.5978 264° West 259 298 10,200 -540 Descending Indianapolis Center
03:14PM 39.7906 -81.6872 264° West 252 290 10,100 -120 Descending Indianapolis Center
03:15PM 39.7825 -81.7906 264° West 241 277 10,000 -60 Descending Indianapolis Center
03:16PM 39.7769 -81.8747 265° West 236 272 10,000  Level Indianapolis Center
03:17PM 39.7692 -81.9617 263° West 241 277 10,000  Level Indianapolis Center
03:18PM 39.7664 -81.9908 263° West 240 276 10,000  Level Indianapolis Center
03:18PM 39.7608 -82.0553 264° West 239 275 10,000  Level Indianapolis Center
03:18PM 39.7625 -82.0467 76° East 239 275 10,000  Level Indianapolis Center
03:19PM 39.7564 -82.1333 265° West 238 274 10,000 -120 Level Indianapolis Center
03:20PM 39.7589 -82.1475 283° West 239 275 9,900 -1,140 Descending Indianapolis Center
03:20PM 39.7908 -82.2083 304° West 243 280 8,900 -1,200 Descending Indianapolis Center
03:21PM 39.7986 -82.2214 308° West 254 292 8,700 -1,500 Descending Indianapolis Center
03:21PM 39.8339 -82.2947 302° West 256 295 7,500 -1,440 Descending Indianapolis Center
03:22PM 39.8372 -82.3006 307° West 253 291 7,300 -1,320 Descending Indianapolis Center
03:23PM 39.8756 -82.3753 304° West 252 290 6,100 -1,260 Descending Indianapolis Center
03:23PM 39.8789 -82.3806 309° West 251 289 6,000 -1,080 Descending Indianapolis Center
03:24PM 39.9081 -82.4533 298° West 250 288 5,000 -960 Descending Indianapolis Center
03:25PM 39.9283 -82.5386 287° West 248 285 4,100 -840 Descending Indianapolis Center
03:25PM 39.9494 -82.6178 289° West 239 275 3,500 -720 Descending Indianapolis Center
03:26PM 39.9503 -82.6189 314° West 243 280 3,400 -660 Descending Indianapolis Center
03:27PM 39.9711 -82.7031 288° West 230 265 2,800 -600 Descending Indianapolis Center
03:27PM 39.9714 -82.6975 86° East 237 273 2,800 -840 Level Indianapolis Center
03:28PM 39.9867 -82.7844 283° West 207 238 2,000 -420 Descending Indianapolis Center
03:28PM 39.9919 -82.7825 16° North 232 267 2,400 -720 Climbing Indianapolis Center
03:29PM 39.9894 -82.8450 267° West 150 173 1,300 -1,020 Descending Indianapolis Center
03:29PM 39.9892 -82.8375 93° East 196 226 1,400 1,200 Climbing Indianapolis Center